sensor_id;sensor_type;location;lat;lon;timestamp;P1;durP1;ratioP1;P2;durP2;ratioP2
22705;SDS011;11520;51.198;4.468;2022-09-09T00:04:29;9.75;;;3.60;;
22705;SDS011;11520;51.198;4.468;2022-09-09T00:07:16;6.22;;;3.67;;
22705;SDS011;11520;51.198;4.468;2022-09-09T00:16:27;9.00;;;3.03;;
22705;SDS011;11520;51.198;4.468;2022-09-09T00:21:35;7.68;;;3.65;;
22705;SDS011;11520;51.198;4.468;2022-09-09T00:27:25;8.60;;;3.05;;
22705;SDS011;11520;51.198;4.468;2022-09-09T00:30:19;6.05;;;2.70;;
22705;SDS011;11520;51.198;4.468;2022-09-09T00:32:48;4.75;;;2.40;;
22705;SDS011;11520;51.198;4.468;2022-09-09T00:35:24;6.88;;;3.00;;
22705;SDS011;11520;51.198;4.468;2022-09-09T00:38:00;5.40;;;2.80;;
22705;SDS011;11520;51.198;4.468;2022-09-09T00:40:53;4.55;;;2.60;;
22705;SDS011;11520;51.198;4.468;2022-09-09T00:43:28;4.45;;;2.75;;
22705;SDS011;11520;51.198;4.468;2022-09-09T00:54:24;6.05;;;2.90;;
22705;SDS011;11520;51.198;4.468;2022-09-09T00:59:51;8.68;;;2.88;;
22705;SDS011;11520;51.198;4.468;2022-09-09T01:02:35;6.05;;;2.67;;
22705;SDS011;11520;51.198;4.468;2022-09-09T01:05:20;7.32;;;2.75;;
22705;SDS011;11520;51.198;4.468;2022-09-09T01:07:55;5.85;;;2.40;;
22705;SDS011;11520;51.198;4.468;2022-09-09T01:13:33;8.38;;;2.72;;
22705;SDS011;11520;51.198;4.468;2022-09-09T01:16:02;6.45;;;2.50;;
22705;SDS011;11520;51.198;4.468;2022-09-09T01:18:35;8.40;;;2.55;;
22705;SDS011;11520;51.198;4.468;2022-09-09T01:21:18;6.97;;;2.50;;
22705;SDS011;11520;51.198;4.468;2022-09-09T01:26:46;3.95;;;2.20;;
22705;SDS011;11520;51.198;4.468;2022-09-09T01:29:16;5.82;;;2.53;;
22705;SDS011;11520;51.198;4.468;2022-09-09T01:34:22;4.57;;;2.50;;
22705;SDS011;11520;51.198;4.468;2022-09-09T01:36:56;8.32;;;2.85;;
22705;SDS011;11520;51.198;4.468;2022-09-09T01:39:23;7.03;;;2.90;;
22705;SDS011;11520;51.198;4.468;2022-09-09T01:41:50;3.35;;;2.08;;
22705;SDS011;11520;51.198;4.468;2022-09-09T01:44:16;4.97;;;2.67;;
22705;SDS011;11520;51.198;4.468;2022-09-09T01:46:44;6.32;;;2.75;;
22705;SDS011;11520;51.198;4.468;2022-09-09T01:49:09;3.65;;;2.05;;
22705;SDS011;11520;51.198;4.468;2022-09-09T01:51:36;6.43;;;2.33;;
22705;SDS011;11520;51.198;4.468;2022-09-09T01:54:04;3.58;;;2.15;;
22705;SDS011;11520;51.198;4.468;2022-09-09T01:56:43;6.55;;;2.28;;
22705;SDS011;11520;51.198;4.468;2022-09-09T02:04:30;6.88;;;2.00;;
22705;SDS011;11520;51.198;4.468;2022-09-09T02:07:15;5.70;;;2.00;;
22705;SDS011;11520;51.198;4.468;2022-09-09T02:09:52;3.88;;;1.98;;
22705;SDS011;11520;51.198;4.468;2022-09-09T02:12:27;5.80;;;3.13;;
22705;SDS011;11520;51.198;4.468;2022-09-09T02:15:03;5.72;;;2.75;;
22705;SDS011;11520;51.198;4.468;2022-09-09T02:17:33;5.32;;;2.33;;
22705;SDS011;11520;51.198;4.468;2022-09-09T02:20:12;9.50;;;2.35;;
22705;SDS011;11520;51.198;4.468;2022-09-09T02:22:40;7.75;;;2.70;;
22705;SDS011;11520;51.198;4.468;2022-09-09T02:25:09;3.67;;;2.30;;
22705;SDS011;11520;51.198;4.468;2022-09-09T02:27:41;9.40;;;2.50;;
22705;SDS011;11520;51.198;4.468;2022-09-09T02:30:10;5.72;;;2.30;;
22705;SDS011;11520;51.198;4.468;2022-09-09T02:32:38;6.70;;;2.40;;
22705;SDS011;11520;51.198;4.468;2022-09-09T02:35:13;7.53;;;2.10;;
22705;SDS011;11520;51.198;4.468;2022-09-09T02:37:42;7.93;;;2.88;;
22705;SDS011;11520;51.198;4.468;2022-09-09T02:40:13;8.07;;;2.25;;
22705;SDS011;11520;51.198;4.468;2022-09-09T02:42:42;4.30;;;1.88;;
22705;SDS011;11520;51.198;4.468;2022-09-09T02:45:11;2.88;;;1.80;;
22705;SDS011;11520;51.198;4.468;2022-09-09T02:50:34;8.73;;;2.30;;
22705;SDS011;11520;51.198;4.468;2022-09-09T02:53:17;5.07;;;1.70;;
22705;SDS011;11520;51.198;4.468;2022-09-09T02:56:04;7.32;;;2.20;;
22705;SDS011;11520;51.198;4.468;2022-09-09T02:58:40;7.22;;;1.55;;
22705;SDS011;11520;51.198;4.468;2022-09-09T03:01:06;4.10;;;1.80;;
22705;SDS011;11520;51.198;4.468;2022-09-09T03:03:34;7.72;;;1.63;;
22705;SDS011;11520;51.198;4.468;2022-09-09T03:06:00;4.40;;;1.75;;
22705;SDS011;11520;51.198;4.468;2022-09-09T03:08:26;4.80;;;1.65;;
22705;SDS011;11520;51.198;4.468;2022-09-09T03:10:53;6.45;;;2.15;;
22705;SDS011;11520;51.198;4.468;2022-09-09T03:13:20;9.20;;;3.10;;
22705;SDS011;11520;51.198;4.468;2022-09-09T03:15:47;13.32;;;3.33;;
22705;SDS011;11520;51.198;4.468;2022-09-09T03:18:13;10.50;;;3.85;;
22705;SDS011;11520;51.198;4.468;2022-09-09T03:20:39;9.35;;;3.60;;
22705;SDS011;11520;51.198;4.468;2022-09-09T03:23:07;10.00;;;3.50;;
22705;SDS011;11520;51.198;4.468;2022-09-09T03:25:32;14.98;;;4.65;;
22705;SDS011;11520;51.198;4.468;2022-09-09T03:27:58;12.73;;;3.80;;
22705;SDS011;11520;51.198;4.468;2022-09-09T03:30:25;12.90;;;3.88;;
22705;SDS011;11520;51.198;4.468;2022-09-09T03:32:52;5.63;;;2.92;;
22705;SDS011;11520;51.198;4.468;2022-09-09T03:35:19;11.07;;;2.95;;
22705;SDS011;11520;51.198;4.468;2022-09-09T03:37:45;10.32;;;3.25;;
22705;SDS011;11520;51.198;4.468;2022-09-09T03:40:11;9.55;;;2.20;;
22705;SDS011;11520;51.198;4.468;2022-09-09T03:42:37;10.75;;;2.72;;
22705;SDS011;11520;51.198;4.468;2022-09-09T03:45:07;10.15;;;2.72;;
22705;SDS011;11520;51.198;4.468;2022-09-09T03:47:35;10.35;;;2.92;;
22705;SDS011;11520;51.198;4.468;2022-09-09T03:50:02;7.68;;;2.35;;
22705;SDS011;11520;51.198;4.468;2022-09-09T03:52:29;9.93;;;2.55;;
22705;SDS011;11520;51.198;4.468;2022-09-09T03:54:56;7.22;;;2.33;;
22705;SDS011;11520;51.198;4.468;2022-09-09T03:57:23;10.23;;;2.90;;
22705;SDS011;11520;51.198;4.468;2022-09-09T03:59:49;6.00;;;2.60;;
22705;SDS011;11520;51.198;4.468;2022-09-09T04:02:15;8.13;;;2.28;;
22705;SDS011;11520;51.198;4.468;2022-09-09T04:04:48;8.32;;;2.28;;
22705;SDS011;11520;51.198;4.468;2022-09-09T04:07:14;6.15;;;1.98;;
22705;SDS011;11520;51.198;4.468;2022-09-09T04:09:40;5.40;;;2.20;;
22705;SDS011;11520;51.198;4.468;2022-09-09T04:12:12;10.13;;;2.72;;
22705;SDS011;11520;51.198;4.468;2022-09-09T04:14:39;7.68;;;2.15;;
22705;SDS011;11520;51.198;4.468;2022-09-09T04:17:04;7.60;;;2.17;;
22705;SDS011;11520;51.198;4.468;2022-09-09T04:19:31;7.65;;;1.95;;
22705;SDS011;11520;51.198;4.468;2022-09-09T04:21:57;8.10;;;2.20;;
22705;SDS011;11520;51.198;4.468;2022-09-09T04:24:23;13.20;;;2.47;;
22705;SDS011;11520;51.198;4.468;2022-09-09T04:26:49;8.25;;;2.08;;
22705;SDS011;11520;51.198;4.468;2022-09-09T04:29:15;11.60;;;2.42;;
22705;SDS011;11520;51.198;4.468;2022-09-09T04:31:41;11.07;;;2.10;;
22705;SDS011;11520;51.198;4.468;2022-09-09T04:34:08;7.60;;;2.10;;
22705;SDS011;11520;51.198;4.468;2022-09-09T04:36:34;7.03;;;2.38;;
22705;SDS011;11520;51.198;4.468;2022-09-09T04:39:00;9.30;;;2.22;;
22705;SDS011;11520;51.198;4.468;2022-09-09T04:41:26;6.95;;;2.00;;
22705;SDS011;11520;51.198;4.468;2022-09-09T04:43:52;11.35;;;2.63;;
22705;SDS011;11520;51.198;4.468;2022-09-09T04:46:19;9.70;;;2.00;;
22705;SDS011;11520;51.198;4.468;2022-09-09T04:48:49;10.75;;;2.30;;
22705;SDS011;11520;51.198;4.468;2022-09-09T04:51:17;11.82;;;3.00;;
22705;SDS011;11520;51.198;4.468;2022-09-09T04:53:42;9.38;;;2.08;;
22705;SDS011;11520;51.198;4.468;2022-09-09T04:56:13;10.70;;;2.30;;
22705;SDS011;11520;51.198;4.468;2022-09-09T04:58:40;8.45;;;1.70;;
22705;SDS011;11520;51.198;4.468;2022-09-09T05:01:14;13.70;;;2.47;;
22705;SDS011;11520;51.198;4.468;2022-09-09T05:03:44;8.82;;;1.85;;
22705;SDS011;11520;51.198;4.468;2022-09-09T05:06:12;7.50;;;2.20;;
22705;SDS011;11520;51.198;4.468;2022-09-09T05:08:44;10.18;;;2.33;;
22705;SDS011;11520;51.198;4.468;2022-09-09T05:11:20;8.50;;;1.77;;
22705;SDS011;11520;51.198;4.468;2022-09-09T05:13:49;13.88;;;2.50;;
22705;SDS011;11520;51.198;4.468;2022-09-09T05:16:15;7.18;;;1.90;;
22705;SDS011;11520;51.198;4.468;2022-09-09T05:18:42;11.07;;;3.40;;
22705;SDS011;11520;51.198;4.468;2022-09-09T05:21:08;12.75;;;2.28;;
22705;SDS011;11520;51.198;4.468;2022-09-09T05:23:34;12.45;;;2.55;;
22705;SDS011;11520;51.198;4.468;2022-09-09T05:26:02;9.73;;;2.60;;
22705;SDS011;11520;51.198;4.468;2022-09-09T05:28:28;11.80;;;2.47;;
22705;SDS011;11520;51.198;4.468;2022-09-09T05:30:58;10.30;;;2.90;;
22705;SDS011;11520;51.198;4.468;2022-09-09T05:33:29;9.18;;;2.17;;
22705;SDS011;11520;51.198;4.468;2022-09-09T05:36:03;11.00;;;2.30;;
22705;SDS011;11520;51.198;4.468;2022-09-09T05:38:30;9.57;;;2.45;;
22705;SDS011;11520;51.198;4.468;2022-09-09T05:41:01;15.20;;;2.45;;
22705;SDS011;11520;51.198;4.468;2022-09-09T05:43:28;9.52;;;1.80;;
22705;SDS011;11520;51.198;4.468;2022-09-09T05:46:04;6.53;;;2.13;;
22705;SDS011;11520;51.198;4.468;2022-09-09T05:48:31;9.75;;;2.20;;
22705;SDS011;11520;51.198;4.468;2022-09-09T05:51:01;9.15;;;2.00;;
22705;SDS011;11520;51.198;4.468;2022-09-09T05:53:28;8.90;;;2.33;;
22705;SDS011;11520;51.198;4.468;2022-09-09T05:56:00;8.23;;;2.45;;
22705;SDS011;11520;51.198;4.468;2022-09-09T05:58:33;9.18;;;2.15;;
22705;SDS011;11520;51.198;4.468;2022-09-09T06:03:35;10.25;;;2.08;;
22705;SDS011;11520;51.198;4.468;2022-09-09T06:08:35;10.82;;;2.90;;
22705;SDS011;11520;51.198;4.468;2022-09-09T06:11:07;9.27;;;2.17;;
22705;SDS011;11520;51.198;4.468;2022-09-09T06:13:41;9.57;;;2.50;;
22705;SDS011;11520;51.198;4.468;2022-09-09T06:16:11;9.52;;;2.72;;
22705;SDS011;11520;51.198;4.468;2022-09-09T06:18:39;14.15;;;2.33;;
22705;SDS011;11520;51.198;4.468;2022-09-09T06:21:05;10.38;;;2.08;;
22705;SDS011;11520;51.198;4.468;2022-09-09T06:23:32;7.30;;;1.88;;
22705;SDS011;11520;51.198;4.468;2022-09-09T06:28:34;11.13;;;2.10;;
22705;SDS011;11520;51.198;4.468;2022-09-09T06:31:05;5.47;;;2.00;;
22705;SDS011;11520;51.198;4.468;2022-09-09T06:33:35;6.20;;;2.30;;
22705;SDS011;11520;51.198;4.468;2022-09-09T06:36:04;8.10;;;2.05;;
22705;SDS011;11520;51.198;4.468;2022-09-09T06:38:30;9.75;;;1.92;;
22705;SDS011;11520;51.198;4.468;2022-09-09T06:40:57;11.07;;;2.88;;
22705;SDS011;11520;51.198;4.468;2022-09-09T06:43:24;5.57;;;1.58;;
22705;SDS011;11520;51.198;4.468;2022-09-09T06:45:57;12.02;;;2.20;;
22705;SDS011;11520;51.198;4.468;2022-09-09T06:48:24;10.40;;;2.20;;
22705;SDS011;11520;51.198;4.468;2022-09-09T06:50:51;12.40;;;2.00;;
22705;SDS011;11520;51.198;4.468;2022-09-09T06:53:26;8.05;;;1.55;;
22705;SDS011;11520;51.198;4.468;2022-09-09T06:55:52;8.70;;;2.30;;
22705;SDS011;11520;51.198;4.468;2022-09-09T06:58:20;5.93;;;1.85;;
22705;SDS011;11520;51.198;4.468;2022-09-09T07:00:47;8.45;;;1.70;;
22705;SDS011;11520;51.198;4.468;2022-09-09T07:03:14;9.13;;;1.70;;
22705;SDS011;11520;51.198;4.468;2022-09-09T07:05:39;7.60;;;2.05;;
22705;SDS011;11520;51.198;4.468;2022-09-09T07:08:05;9.40;;;1.50;;
22705;SDS011;11520;51.198;4.468;2022-09-09T07:10:31;12.70;;;2.20;;
22705;SDS011;11520;51.198;4.468;2022-09-09T07:12:58;10.60;;;2.10;;
22705;SDS011;11520;51.198;4.468;2022-09-09T07:15:26;8.68;;;2.20;;
22705;SDS011;11520;51.198;4.468;2022-09-09T07:17:51;10.80;;;2.03;;
22705;SDS011;11520;51.198;4.468;2022-09-09T07:20:18;18.00;;;2.35;;
22705;SDS011;11520;51.198;4.468;2022-09-09T07:22:45;6.38;;;1.42;;
22705;SDS011;11520;51.198;4.468;2022-09-09T07:25:10;11.63;;;2.83;;
22705;SDS011;11520;51.198;4.468;2022-09-09T07:27:37;9.68;;;2.25;;
22705;SDS011;11520;51.198;4.468;2022-09-09T07:30:03;6.10;;;1.63;;
22705;SDS011;11520;51.198;4.468;2022-09-09T07:32:29;6.60;;;1.67;;
22705;SDS011;11520;51.198;4.468;2022-09-09T07:34:55;7.65;;;1.55;;
22705;SDS011;11520;51.198;4.468;2022-09-09T07:37:24;9.15;;;1.90;;
22705;SDS011;11520;51.198;4.468;2022-09-09T07:39:49;7.70;;;1.60;;
22705;SDS011;11520;51.198;4.468;2022-09-09T07:42:16;12.82;;;1.98;;
22705;SDS011;11520;51.198;4.468;2022-09-09T07:44:41;6.97;;;1.55;;
22705;SDS011;11520;51.198;4.468;2022-09-09T07:47:07;7.90;;;1.55;;
22705;SDS011;11520;51.198;4.468;2022-09-09T07:49:33;7.88;;;2.08;;
22705;SDS011;11520;51.198;4.468;2022-09-09T07:52:00;10.75;;;1.83;;
22705;SDS011;11520;51.198;4.468;2022-09-09T07:54:27;9.45;;;1.80;;
22705;SDS011;11520;51.198;4.468;2022-09-09T07:56:52;7.63;;;1.52;;
22705;SDS011;11520;51.198;4.468;2022-09-09T07:59:19;5.60;;;1.67;;
22705;SDS011;11520;51.198;4.468;2022-09-09T08:01:46;8.18;;;1.52;;
22705;SDS011;11520;51.198;4.468;2022-09-09T08:04:19;9.02;;;2.05;;
22705;SDS011;11520;51.198;4.468;2022-09-09T08:06:47;9.23;;;2.00;;
22705;SDS011;11520;51.198;4.468;2022-09-09T08:09:14;9.35;;;1.95;;
22705;SDS011;11520;51.198;4.468;2022-09-09T08:11:41;6.85;;;1.52;;
22705;SDS011;11520;51.198;4.468;2022-09-09T08:14:07;5.43;;;1.65;;
22705;SDS011;11520;51.198;4.468;2022-09-09T08:16:35;8.93;;;1.52;;
22705;SDS011;11520;51.198;4.468;2022-09-09T08:19:05;11.27;;;2.20;;
22705;SDS011;11520;51.198;4.468;2022-09-09T08:21:32;7.80;;;1.38;;
22705;SDS011;11520;51.198;4.468;2022-09-09T08:23:59;9.23;;;1.45;;
22705;SDS011;11520;51.198;4.468;2022-09-09T08:26:28;10.43;;;1.63;;
22705;SDS011;11520;51.198;4.468;2022-09-09T08:28:56;8.50;;;1.80;;
22705;SDS011;11520;51.198;4.468;2022-09-09T08:31:23;7.95;;;1.85;;
22705;SDS011;11520;51.198;4.468;2022-09-09T08:33:53;12.93;;;1.58;;
22705;SDS011;11520;51.198;4.468;2022-09-09T08:36:20;12.18;;;1.85;;
22705;SDS011;11520;51.198;4.468;2022-09-09T08:38:49;8.27;;;1.65;;
22705;SDS011;11520;51.198;4.468;2022-09-09T08:44:06;4.32;;;1.25;;
22705;SDS011;11520;51.198;4.468;2022-09-09T08:46:46;6.15;;;1.42;;
22705;SDS011;11520;51.198;4.468;2022-09-09T08:51:55;10.20;;;1.85;;
22705;SDS011;11520;51.198;4.468;2022-09-09T08:54:22;6.88;;;1.48;;
22705;SDS011;11520;51.198;4.468;2022-09-09T08:56:48;10.88;;;1.83;;
22705;SDS011;11520;51.198;4.468;2022-09-09T08:59:16;5.47;;;1.48;;
22705;SDS011;11520;51.198;4.468;2022-09-09T09:15:36;8.07;;;1.65;;
22705;SDS011;11520;51.198;4.468;2022-09-09T09:18:03;8.32;;;1.52;;
22705;SDS011;11520;51.198;4.468;2022-09-09T09:21:16;5.65;;;1.60;;
22705;SDS011;11520;51.198;4.468;2022-09-09T09:23:48;7.88;;;1.75;;
22705;SDS011;11520;51.198;4.468;2022-09-09T09:26:23;9.57;;;2.33;;
22705;SDS011;11520;51.198;4.468;2022-09-09T09:28:53;4.47;;;1.50;;
22705;SDS011;11520;51.198;4.468;2022-09-09T09:31:22;8.45;;;1.85;;
22705;SDS011;11520;51.198;4.468;2022-09-09T09:33:50;10.80;;;1.77;;
22705;SDS011;11520;51.198;4.468;2022-09-09T09:36:18;5.55;;;1.63;;
22705;SDS011;11520;51.198;4.468;2022-09-09T09:39:01;4.38;;;1.63;;
22705;SDS011;11520;51.198;4.468;2022-09-09T09:41:35;5.75;;;1.77;;
22705;SDS011;11520;51.198;4.468;2022-09-09T09:44:06;5.57;;;1.77;;
22705;SDS011;11520;51.198;4.468;2022-09-09T09:47:13;5.53;;;1.52;;
22705;SDS011;11520;51.198;4.468;2022-09-09T09:49:51;9.30;;;2.25;;
22705;SDS011;11520;51.198;4.468;2022-09-09T09:52:24;12.25;;;1.90;;
22705;SDS011;11520;51.198;4.468;2022-09-09T09:54:52;6.80;;;1.80;;
22705;SDS011;11520;51.198;4.468;2022-09-09T09:57:18;6.25;;;1.90;;
22705;SDS011;11520;51.198;4.468;2022-09-09T10:00:13;7.70;;;1.85;;
22705;SDS011;11520;51.198;4.468;2022-09-09T10:02:39;9.38;;;1.63;;
22705;SDS011;11520;51.198;4.468;2022-09-09T10:19:00;6.95;;;2.05;;
22705;SDS011;11520;51.198;4.468;2022-09-09T10:43:01;4.32;;;1.52;;
22705;SDS011;11520;51.198;4.468;2022-09-09T10:51:33;4.57;;;1.08;;
22705;SDS011;11520;51.198;4.468;2022-09-09T10:56:48;6.85;;;1.40;;
22705;SDS011;11520;51.198;4.468;2022-09-09T10:59:20;7.55;;;2.03;;
22705;SDS011;11520;51.198;4.468;2022-09-09T11:01:52;7.45;;;1.52;;
22705;SDS011;11520;51.198;4.468;2022-09-09T11:04:24;4.65;;;1.00;;
22705;SDS011;11520;51.198;4.468;2022-09-09T11:06:56;4.90;;;1.05;;
22705;SDS011;11520;51.198;4.468;2022-09-09T11:09:23;3.45;;;1.23;;
22705;SDS011;11520;51.198;4.468;2022-09-09T11:11:55;4.57;;;1.42;;
22705;SDS011;11520;51.198;4.468;2022-09-09T11:15:05;7.70;;;1.83;;
22705;SDS011;11520;51.198;4.468;2022-09-09T11:17:18;5.47;;;1.17;;
22705;SDS011;11520;51.198;4.468;2022-09-09T11:19:47;3.83;;;1.10;;
22705;SDS011;11520;51.198;4.468;2022-09-09T11:25:00;6.78;;;1.20;;
22705;SDS011;11520;51.198;4.468;2022-09-09T11:27:32;2.77;;;1.03;;
22705;SDS011;11520;51.198;4.468;2022-09-09T11:40:54;4.18;;;0.77;;
22705;SDS011;11520;51.198;4.468;2022-09-09T11:43:31;5.63;;;0.98;;
22705;SDS011;11520;51.198;4.468;2022-09-09T11:46:06;3.88;;;0.90;;
22705;SDS011;11520;51.198;4.468;2022-09-09T11:51:07;3.67;;;0.65;;
22705;SDS011;11520;51.198;4.468;2022-09-09T11:53:35;3.10;;;0.90;;
22705;SDS011;11520;51.198;4.468;2022-09-09T11:56:22;5.10;;;0.85;;
22705;SDS011;11520;51.198;4.468;2022-09-09T11:58:54;3.97;;;0.68;;
22705;SDS011;11520;51.198;4.468;2022-09-09T12:01:35;2.53;;;0.80;;
22705;SDS011;11520;51.198;4.468;2022-09-09T12:14:42;3.70;;;0.80;;
22705;SDS011;11520;51.198;4.468;2022-09-09T12:17:19;4.05;;;0.88;;
22705;SDS011;11520;51.198;4.468;2022-09-09T12:19:47;4.45;;;0.80;;
22705;SDS011;11520;51.198;4.468;2022-09-09T12:22:19;4.70;;;0.70;;
22705;SDS011;11520;51.198;4.468;2022-09-09T12:28:05;2.25;;;1.00;;
22705;SDS011;11520;51.198;4.468;2022-09-09T12:33:20;1.95;;;0.63;;
22705;SDS011;11520;51.198;4.468;2022-09-09T12:35:56;2.97;;;0.93;;
22705;SDS011;11520;51.198;4.468;2022-09-09T12:38:30;4.18;;;0.95;;
22705;SDS011;11520;51.198;4.468;2022-09-09T12:40:59;1.63;;;0.60;;
22705;SDS011;11520;51.198;4.468;2022-09-09T12:43:26;2.08;;;0.70;;
22705;SDS011;11520;51.198;4.468;2022-09-09T12:45:54;4.28;;;0.88;;
22705;SDS011;11520;51.198;4.468;2022-09-09T12:48:30;5.55;;;1.40;;
22705;SDS011;11520;51.198;4.468;2022-09-09T12:51:02;3.90;;;1.02;;
22705;SDS011;11520;51.198;4.468;2022-09-09T12:55:59;3.50;;;0.75;;
22705;SDS011;11520;51.198;4.468;2022-09-09T12:58:35;4.25;;;1.17;;
22705;SDS011;11520;51.198;4.468;2022-09-09T13:01:02;3.53;;;0.82;;
22705;SDS011;11520;51.198;4.468;2022-09-09T13:03:33;2.55;;;0.82;;
22705;SDS011;11520;51.198;4.468;2022-09-09T13:06:11;3.58;;;0.90;;
22705;SDS011;11520;51.198;4.468;2022-09-09T13:08:43;3.55;;;1.05;;
22705;SDS011;11520;51.198;4.468;2022-09-09T13:11:10;3.90;;;0.80;;
22705;SDS011;11520;51.198;4.468;2022-09-09T13:13:41;2.55;;;0.85;;
22705;SDS011;11520;51.198;4.468;2022-09-09T13:16:18;4.07;;;0.80;;
22705;SDS011;11520;51.198;4.468;2022-09-09T13:18:51;5.28;;;1.00;;
22705;SDS011;11520;51.198;4.468;2022-09-09T13:21:18;6.35;;;1.00;;
22705;SDS011;11520;51.198;4.468;2022-09-09T13:23:48;2.83;;;0.70;;
22705;SDS011;11520;51.198;4.468;2022-09-09T13:26:20;2.75;;;0.85;;
22705;SDS011;11520;51.198;4.468;2022-09-09T13:28:46;4.07;;;1.00;;
22705;SDS011;11520;51.198;4.468;2022-09-09T13:31:29;1.95;;;0.60;;
22705;SDS011;11520;51.198;4.468;2022-09-09T13:33:57;2.13;;;0.60;;
22705;SDS011;11520;51.198;4.468;2022-09-09T13:36:27;3.20;;;0.75;;
22705;SDS011;11520;51.198;4.468;2022-09-09T13:38:56;3.75;;;0.85;;
22705;SDS011;11520;51.198;4.468;2022-09-09T13:41:25;4.50;;;0.98;;
22705;SDS011;11520;51.198;4.468;2022-09-09T13:43:56;3.60;;;0.82;;
22705;SDS011;11520;51.198;4.468;2022-09-09T13:46:24;5.72;;;1.00;;
22705;SDS011;11520;51.198;4.468;2022-09-09T13:49:38;3.05;;;0.70;;
22705;SDS011;11520;51.198;4.468;2022-09-09T13:52:02;3.25;;;0.77;;
22705;SDS011;11520;51.198;4.468;2022-09-09T13:54:34;3.15;;;1.05;;
22705;SDS011;11520;51.198;4.468;2022-09-09T13:57:00;3.60;;;0.70;;
22705;SDS011;11520;51.198;4.468;2022-09-09T13:59:29;3.10;;;1.05;;
22705;SDS011;11520;51.198;4.468;2022-09-09T14:01:55;1.50;;;0.73;;
22705;SDS011;11520;51.198;4.468;2022-09-09T14:04:21;3.42;;;0.75;;
22705;SDS011;11520;51.198;4.468;2022-09-09T14:06:47;5.75;;;0.68;;
22705;SDS011;11520;51.198;4.468;2022-09-09T14:09:13;3.30;;;0.73;;
22705;SDS011;11520;51.198;4.468;2022-09-09T14:11:40;2.25;;;0.70;;
22705;SDS011;11520;51.198;4.468;2022-09-09T14:14:07;1.40;;;0.68;;
22705;SDS011;11520;51.198;4.468;2022-09-09T14:16:32;2.00;;;0.73;;
22705;SDS011;11520;51.198;4.468;2022-09-09T14:19:00;1.77;;;0.60;;
22705;SDS011;11520;51.198;4.468;2022-09-09T14:21:26;2.60;;;0.73;;
22705;SDS011;11520;51.198;4.468;2022-09-09T14:23:53;3.28;;;0.75;;
22705;SDS011;11520;51.198;4.468;2022-09-09T14:26:20;3.03;;;0.82;;
22705;SDS011;11520;51.198;4.468;2022-09-09T14:28:47;3.90;;;0.85;;
22705;SDS011;11520;51.198;4.468;2022-09-09T14:31:13;2.35;;;0.50;;
22705;SDS011;11520;51.198;4.468;2022-09-09T14:33:39;3.22;;;0.73;;
22705;SDS011;11520;51.198;4.468;2022-09-09T14:36:06;1.92;;;0.80;;
22705;SDS011;11520;51.198;4.468;2022-09-09T14:38:33;4.45;;;0.93;;
22705;SDS011;11520;51.198;4.468;2022-09-09T14:41:04;3.33;;;0.98;;
22705;SDS011;11520;51.198;4.468;2022-09-09T14:43:34;4.80;;;0.90;;
22705;SDS011;11520;51.198;4.468;2022-09-09T14:46:13;4.22;;;1.00;;
22705;SDS011;11520;51.198;4.468;2022-09-09T14:48:42;2.15;;;0.60;;
22705;SDS011;11520;51.198;4.468;2022-09-09T14:51:11;2.00;;;0.80;;
22705;SDS011;11520;51.198;4.468;2022-09-09T14:53:40;4.93;;;0.82;;
22705;SDS011;11520;51.198;4.468;2022-09-09T14:56:07;1.65;;;0.47;;
22705;SDS011;11520;51.198;4.468;2022-09-09T14:58:34;2.65;;;0.73;;
22705;SDS011;11520;51.198;4.468;2022-09-09T15:01:07;4.10;;;0.90;;
22705;SDS011;11520;51.198;4.468;2022-09-09T15:03:38;2.40;;;0.73;;
22705;SDS011;11520;51.198;4.468;2022-09-09T15:06:05;2.67;;;0.70;;
22705;SDS011;11520;51.198;4.468;2022-09-09T15:08:37;3.13;;;1.05;;
22705;SDS011;11520;51.198;4.468;2022-09-09T15:11:05;2.85;;;0.60;;
22705;SDS011;11520;51.198;4.468;2022-09-09T15:13:35;4.13;;;0.65;;
22705;SDS011;11520;51.198;4.468;2022-09-09T15:16:15;2.33;;;0.55;;
22705;SDS011;11520;51.198;4.468;2022-09-09T15:18:42;3.40;;;0.68;;
22705;SDS011;11520;51.198;4.468;2022-09-09T15:21:11;3.42;;;1.10;;
22705;SDS011;11520;51.198;4.468;2022-09-09T15:23:38;4.80;;;1.20;;
22705;SDS011;11520;51.198;4.468;2022-09-09T15:26:04;4.47;;;1.40;;
22705;SDS011;11520;51.198;4.468;2022-09-09T15:28:32;5.35;;;1.25;;
22705;SDS011;11520;51.198;4.468;2022-09-09T15:31:14;5.20;;;1.23;;
22705;SDS011;11520;51.198;4.468;2022-09-09T15:33:50;5.53;;;1.10;;
22705;SDS011;11520;51.198;4.468;2022-09-09T15:38:45;4.10;;;0.88;;
22705;SDS011;11520;51.198;4.468;2022-09-09T15:41:14;2.53;;;1.20;;
22705;SDS011;11520;51.198;4.468;2022-09-09T15:43:45;4.55;;;1.20;;
22705;SDS011;11520;51.198;4.468;2022-09-09T15:46:36;3.72;;;0.75;;
22705;SDS011;11520;51.198;4.468;2022-09-09T15:49:03;3.17;;;1.17;;
22705;SDS011;11520;51.198;4.468;2022-09-09T15:51:29;5.43;;;0.90;;
22705;SDS011;11520;51.198;4.468;2022-09-09T15:53:56;5.50;;;1.30;;
22705;SDS011;11520;51.198;4.468;2022-09-09T15:56:24;2.33;;;0.90;;
22705;SDS011;11520;51.198;4.468;2022-09-09T15:58:50;1.83;;;0.80;;
22705;SDS011;11520;51.198;4.468;2022-09-09T16:01:18;4.47;;;0.85;;
22705;SDS011;11520;51.198;4.468;2022-09-09T16:03:44;4.10;;;0.93;;
22705;SDS011;11520;51.198;4.468;2022-09-09T16:06:17;2.08;;;0.80;;
22705;SDS011;11520;51.198;4.468;2022-09-09T16:08:48;3.63;;;0.70;;
22705;SDS011;11520;51.198;4.468;2022-09-09T16:11:22;3.25;;;0.90;;
22705;SDS011;11520;51.198;4.468;2022-09-09T16:13:50;4.95;;;0.98;;
22705;SDS011;11520;51.198;4.468;2022-09-09T16:16:17;1.38;;;0.70;;
22705;SDS011;11520;51.198;4.468;2022-09-09T16:18:47;3.35;;;0.82;;
22705;SDS011;11520;51.198;4.468;2022-09-09T16:21:19;2.90;;;0.93;;
22705;SDS011;11520;51.198;4.468;2022-09-09T16:23:50;1.52;;;0.85;;
22705;SDS011;11520;51.198;4.468;2022-09-09T16:26:18;2.30;;;0.88;;
22705;SDS011;11520;51.198;4.468;2022-09-09T16:28:44;2.45;;;0.68;;
22705;SDS011;11520;51.198;4.468;2022-09-09T16:31:13;3.47;;;0.90;;
22705;SDS011;11520;51.198;4.468;2022-09-09T16:33:44;3.90;;;1.55;;
22705;SDS011;11520;51.198;4.468;2022-09-09T16:36:19;5.93;;;1.42;;
22705;SDS011;11520;51.198;4.468;2022-09-09T16:38:53;3.10;;;1.05;;
22705;SDS011;11520;51.198;4.468;2022-09-09T16:41:20;6.18;;;1.95;;
22705;SDS011;11520;51.198;4.468;2022-09-09T16:43:47;4.75;;;1.95;;
22705;SDS011;11520;51.198;4.468;2022-09-09T16:46:22;7.60;;;2.00;;
22705;SDS011;11520;51.198;4.468;2022-09-09T16:48:49;4.80;;;1.50;;
22705;SDS011;11520;51.198;4.468;2022-09-09T16:51:24;2.10;;;1.10;;
22705;SDS011;11520;51.198;4.468;2022-09-09T16:53:52;5.00;;;1.30;;
22705;SDS011;11520;51.198;4.468;2022-09-09T16:56:19;6.43;;;1.83;;
22705;SDS011;11520;51.198;4.468;2022-09-09T16:58:51;4.35;;;1.50;;
22705;SDS011;11520;51.198;4.468;2022-09-09T17:01:28;6.97;;;2.25;;
22705;SDS011;11520;51.198;4.468;2022-09-09T17:03:57;4.30;;;1.95;;
22705;SDS011;11520;51.198;4.468;2022-09-09T17:06:27;3.88;;;2.05;;
22705;SDS011;11520;51.198;4.468;2022-09-09T17:09:00;8.77;;;2.40;;
22705;SDS011;11520;51.198;4.468;2022-09-09T17:11:27;6.93;;;2.20;;
22705;SDS011;11520;51.198;4.468;2022-09-09T17:13:54;5.38;;;2.30;;
22705;SDS011;11520;51.198;4.468;2022-09-09T17:16:23;3.90;;;2.00;;
22705;SDS011;11520;51.198;4.468;2022-09-09T17:18:51;5.35;;;2.05;;
22705;SDS011;11520;51.198;4.468;2022-09-09T17:21:21;4.97;;;2.10;;
22705;SDS011;11520;51.198;4.468;2022-09-09T17:23:48;4.05;;;1.90;;
22705;SDS011;11520;51.198;4.468;2022-09-09T17:26:15;7.75;;;2.47;;
22705;SDS011;11520;51.198;4.468;2022-09-09T17:28:44;6.65;;;2.00;;
22705;SDS011;11520;51.198;4.468;2022-09-09T17:31:15;4.93;;;1.85;;
22705;SDS011;11520;51.198;4.468;2022-09-09T17:33:47;6.47;;;2.65;;
22705;SDS011;11520;51.198;4.468;2022-09-09T17:36:18;5.38;;;2.28;;